createdAt,value
2018-09-21T00:00:20.635Z,0
2018-09-21T00:01:30.443Z,0
2018-09-21T00:02:40.521Z,0
2018-09-21T00:03:50.333Z,0
2018-09-21T00:05:00.133Z,0
2018-09-21T00:06:10.912Z,0
2018-09-21T00:07:20.995Z,0
2018-09-21T00:08:30.797Z,0
2018-09-21T00:09:40.880Z,0
2018-09-21T00:10:50.941Z,0
2018-09-21T00:12:00.744Z,0
2018-09-21T00:13:10.832Z,0
2018-09-21T00:14:20.648Z,0
2018-09-21T00:15:30.464Z,0
2018-09-21T00:16:40.273Z,0
2018-09-21T00:17:50.093Z,0
2018-09-21T00:18:59.898Z,0
2018-09-21T00:20:10.484Z,0
2018-09-21T00:21:20.291Z,0
2018-09-21T00:22:30.119Z,0
2018-09-21T00:23:40.983Z,0
2018-09-21T00:24:50.541Z,0
2018-09-21T00:26:02.823Z,0
2018-09-21T00:27:12.906Z,0
2018-09-21T00:28:23.016Z,0
2018-09-21T00:29:33.096Z,0
2018-09-21T00:30:43.157Z,0
2018-09-21T00:31:52.983Z,0
2018-09-21T00:33:03.074Z,0
2018-09-21T00:34:12.871Z,0
2018-09-21T00:35:22.992Z,0
2018-09-21T00:36:32.811Z,0
2018-09-21T00:37:42.902Z,0
2018-09-21T00:38:52.965Z,0
2018-09-21T00:40:03.626Z,0
2018-09-21T00:41:13.703Z,0
2018-09-21T00:42:23.525Z,0
2018-09-21T00:43:33.594Z,0
2018-09-21T00:44:43.402Z,0
2018-09-21T00:45:53.486Z,0
2018-09-21T00:47:05.618Z,0
2018-09-21T00:48:15.153Z,0
2018-09-21T00:49:25.272Z,0
2018-09-21T00:50:35.093Z,0
2018-09-21T00:51:44.646Z,0
2018-09-21T00:52:54.715Z,0
2018-09-21T00:54:04.537Z,0
2018-09-21T00:55:14.622Z,0
2018-09-21T00:56:24.415Z,0
2018-09-21T00:57:34.507Z,0
2018-09-21T00:58:44.671Z,0
2018-09-21T00:59:54.758Z,0
2018-09-21T01:01:04.838Z,0
2018-09-21T01:02:14.650Z,0
2018-09-21T01:03:24.472Z,0
2018-09-21T01:04:34.540Z,0
2018-09-21T01:05:44.607Z,0
2018-09-21T01:06:54.717Z,0
2018-09-21T01:08:04.838Z,0
2018-09-21T01:09:14.639Z,0
2018-09-21T01:10:24.775Z,0
2018-09-21T01:11:34.869Z,0
2018-09-21T01:12:44.948Z,0
2018-09-21T01:13:55.036Z,0
2018-09-21T01:15:05.115Z,0
2018-09-21T01:16:16.237Z,0
2018-09-21T01:17:26.036Z,0
2018-09-21T01:18:35.838Z,0
2018-09-21T01:19:45.657Z,0
2018-09-21T01:20:55.478Z,0
2018-09-21T01:22:05.554Z,0
2018-09-21T01:23:15.747Z,0
2018-09-21T01:24:25.566Z,0
2018-09-21T01:25:35.625Z,0
2018-09-21T01:26:45.772Z,0
2018-09-21T01:27:55.331Z,0
2018-09-21T01:29:05.158Z,0
2018-09-21T01:30:15.249Z,0
2018-09-21T01:31:25.076Z,0
2018-09-21T01:32:35.160Z,0
2018-09-21T01:33:45.297Z,0
2018-09-21T01:34:55.380Z,0
2018-09-21T01:36:05.441Z,0
2018-09-21T01:37:15.539Z,0
2018-09-21T01:38:25.600Z,0
2018-09-21T01:39:35.417Z,0
2018-09-21T01:40:45.495Z,0
2018-09-21T01:41:55.343Z,0
2018-09-21T01:43:05.423Z,0
2018-09-21T01:44:15.497Z,0
2018-09-21T01:45:25.583Z,0
2018-09-21T01:46:35.384Z,0
2018-09-21T01:47:45.462Z,0
2018-09-21T01:48:55.559Z,0
2018-09-21T01:50:05.647Z,0
2018-09-21T01:51:15.737Z,0
2018-09-21T01:52:25.535Z,0
2018-09-21T01:53:35.623Z,0
2018-09-21T01:54:45.695Z,0
2018-09-21T01:55:55.565Z,0
2018-09-21T01:57:05.688Z,0
2018-09-21T01:58:15.488Z,0
2018-09-21T01:59:25.570Z,0
2018-09-21T02:00:35.634Z,0
2018-09-21T02:01:45.448Z,0
2018-09-21T02:02:55.498Z,0
2018-09-21T02:04:05.328Z,0
2018-09-21T02:05:15.401Z,0
2018-09-21T02:06:25.487Z,0
2018-09-21T02:07:35.574Z,0
2018-09-21T02:08:45.642Z,0
2018-09-21T02:09:55.732Z,0
2018-09-21T02:11:05.922Z,0
2018-09-21T02:12:15.992Z,0
2018-09-21T02:13:26.072Z,0
2018-09-21T02:14:35.937Z,0
2018-09-21T02:15:46.020Z,0
2018-09-21T02:16:56.098Z,0
2018-09-21T02:18:07.033Z,0
2018-09-21T02:19:17.118Z,0
2018-09-21T02:20:27.011Z,0
2018-09-21T02:21:37.087Z,0
2018-09-21T02:22:47.169Z,0
2018-09-21T02:23:56.963Z,0
2018-09-21T02:25:07.040Z,0
2018-09-21T02:26:17.140Z,0
2018-09-21T02:27:27.216Z,0
2018-09-21T02:28:37.038Z,0
2018-09-21T02:29:47.103Z,0
2018-09-21T02:30:56.918Z,0
2018-09-21T02:32:06.725Z,0
2018-09-21T02:33:16.542Z,0
2018-09-21T02:34:26.627Z,0
2018-09-21T02:35:36.479Z,0
2018-09-21T02:36:46.585Z,0
2018-09-21T02:37:56.391Z,0
2018-09-21T02:39:06.487Z,0
2018-09-21T02:40:16.589Z,0
2018-09-21T02:41:27.115Z,0
2018-09-21T02:42:37.211Z,0
2018-09-21T02:43:47.163Z,0
2018-09-21T02:44:57.258Z,0
2018-09-21T02:46:07.343Z,0
2018-09-21T02:47:17.169Z,0
2018-09-21T02:48:27.244Z,0
2018-09-21T02:49:37.055Z,0
2018-09-21T02:50:47.137Z,0
2018-09-21T02:51:57.224Z,0
2018-09-21T02:53:07.302Z,0
2018-09-21T02:54:17.418Z,0
2018-09-21T02:55:28.150Z,0
2018-09-21T02:56:38.216Z,0
2018-09-21T02:57:48.322Z,0
2018-09-21T02:58:58.137Z,0
2018-09-21T03:00:08.212Z,0
2018-09-21T03:01:18.332Z,0
2018-09-21T03:02:28.417Z,0
2018-09-21T03:35:34.615Z,0
2018-09-21T03:36:44.437Z,0
2018-09-21T03:37:54.528Z,0
2018-09-21T03:39:05.351Z,0
2018-09-21T03:40:15.455Z,0
2018-09-21T03:41:25.575Z,0
2018-09-21T03:42:35.407Z,0
2018-09-21T03:43:45.481Z,0
2018-09-21T03:44:55.623Z,0
2018-09-21T03:46:06.069Z,0
2018-09-21T03:47:16.940Z,0
2018-09-21T03:48:27.016Z,0
2018-09-21T03:49:36.827Z,0
2018-09-21T03:50:46.940Z,0
2018-09-21T03:51:56.746Z,0
2018-09-21T03:53:06.889Z,0
2018-09-21T03:54:17.017Z,0
2018-09-21T03:55:27.108Z,0
2018-09-21T03:56:37.185Z,0
2018-09-21T03:57:47.260Z,0
2018-09-21T03:58:57.319Z,0
2018-09-21T04:00:07.142Z,0
2018-09-21T04:01:17.417Z,0
2018-09-21T04:02:27.512Z,0
2018-09-21T04:03:37.582Z,0
2018-09-21T04:04:47.715Z,0
2018-09-21T04:05:57.795Z,0
2018-09-21T04:07:07.889Z,0
2018-09-21T04:08:17.958Z,0
2018-09-21T04:09:28.026Z,0
2018-09-21T04:10:38.178Z,0
2018-09-21T04:11:48.262Z,0
2018-09-21T04:12:58.339Z,0
2018-09-21T04:14:08.409Z,0
2018-09-21T04:15:18.496Z,0
2018-09-21T04:16:28.326Z,0
2018-09-21T04:17:38.404Z,0
2018-09-21T04:18:48.492Z,0
2018-09-21T04:19:58.577Z,0
2018-09-21T04:21:08.132Z,0
2018-09-21T04:22:17.945Z,0
2018-09-21T04:23:28.059Z,0
2018-09-21T04:24:38.133Z,0
2018-09-21T04:25:47.951Z,0
2018-09-21T04:26:57.757Z,0
2018-09-21T04:28:07.571Z,0
2018-09-21T04:29:17.650Z,0
2018-09-21T04:30:27.737Z,0
2018-09-21T04:31:37.533Z,0
2018-09-21T04:32:47.626Z,0
2018-09-21T04:33:57.683Z,0
2018-09-21T04:35:10.073Z,0
2018-09-21T04:36:20.489Z,0
2018-09-21T04:37:30.577Z,0
2018-09-21T04:38:40.655Z,5
2018-09-21T04:39:50.741Z,5
2018-09-21T04:41:03.325Z,5
2018-09-21T04:42:13.400Z,5
2018-09-21T04:43:23.216Z,5
2018-09-21T04:44:33.378Z,5
2018-09-21T04:45:43.108Z,5
2018-09-21T04:46:53.191Z,10
2018-09-21T04:48:03.273Z,10
2018-09-21T04:49:13.370Z,10
2018-09-21T04:50:23.455Z,10
2018-09-21T04:51:33.532Z,10
2018-09-21T04:52:43.675Z,15
2018-09-21T04:53:53.763Z,15
2018-09-21T04:55:04.579Z,15
2018-09-21T04:56:14.650Z,15
2018-09-21T04:57:24.518Z,20
2018-09-21T04:58:34.586Z,20
2018-09-21T04:59:44.661Z,20
2018-09-21T05:00:54.218Z,20
2018-09-21T05:02:04.071Z,25
2018-09-21T05:03:14.225Z,25
2018-09-21T05:04:24.277Z,25
2018-09-21T05:05:34.104Z,25
2018-09-21T05:06:43.918Z,30
2018-09-21T05:07:54.000Z,30
2018-09-21T05:09:04.066Z,30
2018-09-21T05:10:14.156Z,30
2018-09-21T05:11:24.230Z,35
2018-09-21T05:12:34.327Z,35
2018-09-21T05:13:44.775Z,35
2018-09-21T05:14:54.922Z,40
2018-09-21T05:16:05.095Z,40
2018-09-21T05:17:15.179Z,40
2018-09-21T05:18:25.271Z,40
2018-09-21T05:19:35.360Z,45
2018-09-21T05:20:45.175Z,45
2018-09-21T05:21:55.264Z,45
2018-09-21T05:23:05.665Z,45
2018-09-21T05:24:15.465Z,50
2018-09-21T05:25:25.283Z,50
2018-09-21T05:26:35.108Z,50
2018-09-21T05:27:45.200Z,50
2018-09-21T05:28:55.298Z,55
2018-09-21T05:30:08.782Z,55
2018-09-21T05:31:18.850Z,55
2018-09-21T05:32:28.979Z,55
2018-09-21T05:33:39.061Z,60
2018-09-21T05:34:50.295Z,60
2018-09-21T05:36:03.563Z,60
2018-09-21T05:37:13.639Z,60
2018-09-21T05:38:23.708Z,60
2018-09-21T05:39:33.790Z,60
2018-09-21T05:40:43.875Z,60
2018-09-21T05:41:53.956Z,65
2018-09-21T05:43:03.784Z,65
2018-09-21T05:44:13.750Z,65
2018-09-21T05:45:23.840Z,65
2018-09-21T05:46:33.670Z,70
2018-09-21T05:47:43.757Z,70
2018-09-21T05:48:53.855Z,70
2018-09-21T05:50:03.944Z,75
2018-09-21T05:51:14.031Z,75
2018-09-21T05:52:24.091Z,75
2018-09-21T05:53:34.196Z,75
2018-09-21T05:54:44.026Z,80
2018-09-21T05:55:54.105Z,80
2018-09-21T05:57:04.171Z,80
2018-09-21T05:58:14.008Z,80
2018-09-21T05:59:24.104Z,80
2018-09-21T06:00:34.213Z,85
2018-09-21T06:01:44.406Z,85
2018-09-21T06:02:54.385Z,85
2018-09-21T06:04:04.545Z,85
2018-09-21T06:05:14.631Z,90
2018-09-21T06:06:24.714Z,90
2018-09-21T06:07:34.571Z,90
2018-09-21T06:08:44.657Z,90
2018-09-21T06:09:54.734Z,90
2018-09-21T06:11:04.537Z,90
2018-09-21T06:12:14.620Z,95
2018-09-21T06:13:24.430Z,95
2018-09-21T06:14:34.265Z,95
2018-09-21T06:15:44.351Z,95
2018-09-21T06:16:54.171Z,95
2018-09-21T06:18:04.257Z,95
2018-09-21T06:19:14.420Z,100
2018-09-21T06:20:24.520Z,100
2018-09-21T06:21:34.083Z,100
2018-09-21T06:22:55.236Z,100
2018-09-21T06:24:05.359Z,100
2018-09-21T06:25:15.444Z,100
2018-09-21T06:26:25.266Z,100
2018-09-21T06:27:35.083Z,105
2018-09-21T06:28:45.142Z,105
2018-09-21T06:29:55.278Z,105
2018-09-21T06:31:05.374Z,105
2018-09-21T06:32:15.223Z,105
2018-09-21T06:33:25.306Z,105
2018-09-21T06:34:35.378Z,105
2018-09-21T06:35:45.513Z,105
2018-09-21T06:36:55.334Z,105
2018-09-21T06:38:06.099Z,110
2018-09-21T06:39:15.935Z,110
2018-09-21T06:40:26.043Z,110
2018-09-21T06:41:36.141Z,110
2018-09-21T06:42:46.037Z,110
2018-09-21T06:43:55.851Z,110
2018-09-21T06:45:05.922Z,110
2018-09-21T06:46:16.009Z,115
2018-09-21T06:47:26.245Z,115
2018-09-21T06:48:36.345Z,115
2018-09-21T06:49:46.583Z,115
2018-09-21T06:50:56.687Z,115
2018-09-21T06:52:06.749Z,115
2018-09-21T06:53:16.947Z,115
2018-09-21T06:54:26.785Z,115
2018-09-21T06:55:36.865Z,115
2018-09-21T06:56:46.945Z,115
2018-09-21T06:57:57.034Z,115
2018-09-21T06:59:07.209Z,120
2018-09-21T07:00:17.044Z,120
2018-09-21T07:01:27.183Z,120
2018-09-21T07:02:37.355Z,120
2018-09-21T07:03:47.455Z,120
2018-09-21T07:04:57.349Z,120
2018-09-21T07:06:07.720Z,120
2018-09-21T07:07:17.825Z,120
2018-09-21T07:08:27.928Z,120
2018-09-21T07:09:38.005Z,125
2018-09-21T07:10:48.135Z,125
2018-09-21T07:11:58.237Z,125
2018-09-21T07:13:09.551Z,125
2018-09-21T07:14:19.357Z,125
2018-09-21T07:15:29.439Z,125
2018-09-21T07:16:39.520Z,125
2018-09-21T07:17:49.638Z,125
2018-09-21T07:18:59.713Z,125
2018-09-21T07:20:09.984Z,125
2018-09-21T07:21:20.070Z,125
2018-09-21T07:22:30.158Z,125
2018-09-21T07:23:40.242Z,125
2018-09-21T07:24:50.330Z,125
2018-09-21T07:26:00.405Z,125
2018-09-21T07:27:10.485Z,125
2018-09-21T07:28:20.584Z,125
2018-09-21T07:29:30.661Z,125
2018-09-21T07:30:40.740Z,130
2018-09-21T07:31:50.551Z,130
2018-09-21T07:33:02.043Z,130
2018-09-21T07:34:12.124Z,130
2018-09-21T07:35:21.668Z,130
2018-09-21T07:36:31.220Z,130
2018-09-21T07:37:41.853Z,130
2018-09-21T07:38:51.410Z,130
2018-09-21T07:40:02.038Z,130
2018-09-21T07:41:12.130Z,135
2018-09-21T07:42:22.263Z,135
2018-09-21T07:43:32.080Z,135
2018-09-21T07:44:42.597Z,135
2018-09-21T07:45:52.815Z,135
2018-09-21T07:47:02.911Z,135
2018-09-21T07:48:12.750Z,135
2018-09-21T07:49:22.853Z,135
2018-09-21T07:50:32.956Z,135
2018-09-21T07:51:43.079Z,135
2018-09-21T07:52:53.157Z,140
2018-09-21T07:54:03.248Z,140
2018-09-21T07:55:13.352Z,140
2018-09-21T07:56:23.436Z,140
2018-09-21T07:57:33.315Z,140
2018-09-21T07:58:43.420Z,140
2018-09-21T07:59:52.977Z,140
2018-09-21T08:01:03.069Z,140
2018-09-21T08:02:12.892Z,145
2018-09-21T08:03:22.717Z,145
2018-09-21T08:04:32.529Z,145
2018-09-21T08:05:42.373Z,145
2018-09-21T08:06:52.465Z,145
2018-09-21T08:08:03.307Z,145
2018-09-21T08:09:13.466Z,145
2018-09-21T08:10:23.276Z,145
2018-09-21T08:11:33.104Z,145
2018-09-21T08:12:43.250Z,145
2018-09-21T08:13:53.403Z,150
2018-09-21T08:15:03.504Z,150
2018-09-21T08:16:13.621Z,150
2018-09-21T08:17:23.718Z,150
2018-09-21T08:18:33.792Z,150
2018-09-21T08:19:44.100Z,150
2018-09-21T08:20:54.195Z,150
2018-09-21T08:22:04.302Z,150
2018-09-21T08:23:14.161Z,150
2018-09-21T08:24:24.255Z,150
2018-09-21T08:25:34.355Z,150
2018-09-21T08:26:45.117Z,155
2018-09-21T08:27:55.213Z,155
2018-09-21T08:29:05.209Z,155
2018-09-21T08:30:15.279Z,155
2018-09-21T08:31:25.451Z,155
2018-09-21T08:32:35.156Z,155
2018-09-21T08:33:44.982Z,155
2018-09-21T08:34:54.809Z,155
2018-09-21T08:36:04.927Z,155
2018-09-21T08:37:15.600Z,160
2018-09-21T08:38:25.416Z,160
2018-09-21T08:39:35.511Z,160
2018-09-21T08:40:45.640Z,160
2018-09-21T08:41:55.495Z,160
2018-09-21T08:43:05.702Z,160
2018-09-21T08:44:15.689Z,160
2018-09-21T08:45:25.878Z,160
2018-09-21T08:46:35.996Z,160
2018-09-21T08:47:46.084Z,160
2018-09-21T08:48:55.662Z,160
2018-09-21T08:50:05.507Z,165
2018-09-21T08:51:15.693Z,165
2018-09-21T08:52:25.799Z,165
2018-09-21T08:53:35.891Z,165
2018-09-21T08:54:45.991Z,165
2018-09-21T08:55:56.143Z,165
2018-09-21T08:57:06.234Z,165
2018-09-21T08:58:16.353Z,165
2018-09-21T08:59:26.447Z,165
2018-09-21T09:00:36.528Z,165
2018-09-21T09:01:46.340Z,165
2018-09-21T09:02:56.397Z,165
2018-09-21T09:04:06.161Z,165
2018-09-21T09:05:16.254Z,170
2018-09-21T09:06:26.346Z,170
2018-09-21T09:07:36.226Z,170
2018-09-21T09:08:46.060Z,170
2018-09-21T09:09:56.161Z,170
2018-09-21T09:11:06.265Z,170
2018-09-21T09:12:16.086Z,170
2018-09-21T09:13:26.177Z,170
2018-09-21T09:14:36.278Z,170
2018-09-21T09:15:46.346Z,170
2018-09-21T09:16:56.432Z,170
2018-09-21T09:18:06.534Z,170
2018-09-21T09:19:16.679Z,170
2018-09-21T09:20:26.292Z,170
2018-09-21T09:21:36.391Z,170
2018-09-21T09:22:46.465Z,170
2018-09-21T09:23:56.545Z,170
2018-09-21T09:25:08.823Z,170
2018-09-21T09:26:18.913Z,170
2018-09-21T09:27:28.736Z,170
2018-09-21T09:28:38.807Z,170
2018-09-21T09:29:48.807Z,170
2018-09-21T09:30:58.909Z,170
2018-09-21T09:32:09.000Z,170
2018-09-21T09:33:18.830Z,170
2018-09-21T09:34:28.937Z,170
2018-09-21T09:35:39.030Z,175
2018-09-21T09:36:48.738Z,175
2018-09-21T09:37:58.625Z,175
2018-09-21T09:39:08.467Z,175
2018-09-21T09:40:18.573Z,175
2018-09-21T09:41:28.657Z,175
2018-09-21T09:42:38.303Z,175
2018-09-21T09:43:48.407Z,175
2018-09-21T09:44:58.503Z,175
2018-09-21T09:46:08.574Z,175
2018-09-21T09:47:18.411Z,175
2018-09-21T09:48:29.027Z,175
2018-09-21T09:49:39.147Z,175
2018-09-21T09:50:49.237Z,175
2018-09-21T09:51:59.338Z,180
2018-09-21T09:53:09.438Z,175
2018-09-21T09:54:19.527Z,180
2018-09-21T09:55:29.617Z,180
2018-09-21T09:56:39.710Z,180
2018-09-21T09:57:49.789Z,180
2018-09-21T09:58:59.617Z,180
2018-09-21T10:00:11.576Z,175
2018-09-21T10:01:21.679Z,180
2018-09-21T10:02:31.774Z,180
2018-09-21T10:03:42.163Z,180
2018-09-21T10:04:52.310Z,180
2018-09-21T10:06:02.179Z,180
2018-09-21T10:07:11.745Z,180
2018-09-21T10:08:21.832Z,180
2018-09-21T10:09:31.930Z,180
2018-09-21T10:10:41.504Z,180
2018-09-21T10:11:51.385Z,180
2018-09-21T10:13:01.505Z,180
2018-09-21T10:14:11.620Z,180
2018-09-21T10:15:21.710Z,180
2018-09-21T10:16:32.220Z,180
2018-09-21T10:17:41.928Z,180
2018-09-21T10:18:52.013Z,180
2018-09-21T10:20:01.834Z,180
2018-09-21T10:21:11.682Z,180
2018-09-21T10:22:21.763Z,180
2018-09-21T10:23:31.963Z,180
2018-09-21T10:24:41.940Z,180
2018-09-21T10:25:51.234Z,185
2018-09-21T10:27:01.294Z,180
2018-09-21T10:28:13.785Z,185
2018-09-21T10:29:24.075Z,180
2018-09-21T10:30:33.898Z,185
2018-09-21T10:31:44.053Z,185
2018-09-21T10:32:53.898Z,185
2018-09-21T10:34:03.731Z,185
2018-09-21T10:35:13.881Z,185
2018-09-21T10:36:23.758Z,185
2018-09-21T10:37:33.595Z,185
2018-09-21T10:38:43.806Z,185
2018-09-21T10:39:53.994Z,185
2018-09-21T10:41:04.541Z,185
2018-09-21T10:42:14.710Z,185
2018-09-21T10:43:24.791Z,185
2018-09-21T10:44:34.872Z,185
2018-09-21T10:45:44.694Z,185
2018-09-21T10:46:54.868Z,185
2018-09-21T10:48:04.966Z,185
2018-09-21T10:49:15.082Z,185
2018-09-21T10:50:24.929Z,185
2018-09-21T10:51:35.032Z,185
2018-09-21T10:52:45.180Z,185
2018-09-21T10:53:55.082Z,190
2018-09-21T10:55:04.911Z,190
2018-09-21T10:56:14.997Z,190
2018-09-21T10:57:24.841Z,185
2018-09-21T10:58:35.136Z,185
2018-09-21T10:59:45.303Z,185
2018-09-21T11:00:55.135Z,185
2018-09-21T11:02:05.251Z,185
2018-09-21T11:03:15.361Z,190
2018-09-21T11:04:25.581Z,190
2018-09-21T11:05:35.670Z,190
2018-09-21T11:06:45.782Z,190
2018-09-21T11:07:55.890Z,190
2018-09-21T11:09:05.965Z,190
2018-09-21T11:10:16.073Z,190
2018-09-21T11:11:26.171Z,190
2018-09-21T11:12:36.246Z,195
2018-09-21T11:13:46.330Z,195
2018-09-21T11:14:56.451Z,190
2018-09-21T11:16:06.300Z,190
2018-09-21T11:17:16.368Z,190
2018-09-21T11:18:26.193Z,190
2018-09-21T11:19:35.753Z,195
2018-09-21T11:20:45.841Z,195
2018-09-21T11:21:55.943Z,195
2018-09-21T11:23:05.765Z,195
2018-09-21T11:24:15.844Z,195
2018-09-21T11:25:25.964Z,195
2018-09-21T11:26:36.044Z,190
2018-09-21T11:27:45.895Z,195
2018-09-21T11:28:56.047Z,195
2018-09-21T11:30:05.881Z,200
2018-09-21T11:31:15.719Z,200
2018-09-21T11:32:25.888Z,195
2018-09-21T11:33:35.719Z,195
2018-09-21T11:34:45.576Z,200
2018-09-21T11:35:55.516Z,200
2018-09-21T11:37:05.634Z,200
2018-09-21T11:38:15.771Z,200
2018-09-21T11:39:25.340Z,200
2018-09-21T11:40:35.442Z,195
2018-09-21T11:41:45.599Z,200
2018-09-21T11:42:55.698Z,200
2018-09-21T11:44:06.146Z,200
2018-09-21T11:45:15.985Z,200
2018-09-21T11:46:26.074Z,200
2018-09-21T11:47:37.293Z,200
2018-09-21T11:48:47.153Z,200
2018-09-21T11:49:57.019Z,200
2018-09-21T11:51:07.170Z,200
2018-09-21T11:52:17.260Z,200
2018-09-21T11:53:27.339Z,200
2018-09-21T11:54:37.445Z,200
2018-09-21T11:55:47.647Z,205
2018-09-21T11:56:57.458Z,200
2018-09-21T11:58:09.567Z,200
2018-09-21T11:59:19.666Z,200
2018-09-21T12:00:29.491Z,200
2018-09-21T12:01:39.393Z,200
2018-09-21T12:02:49.241Z,200
2018-09-21T12:03:59.325Z,200
2018-09-21T12:05:09.820Z,200
2018-09-21T12:06:19.646Z,200
2018-09-21T12:07:29.793Z,205
2018-09-21T12:08:39.901Z,205
2018-09-21T12:09:50.000Z,205
2018-09-21T12:10:59.653Z,205
2018-09-21T12:12:09.758Z,205
2018-09-21T12:13:19.858Z,205
2018-09-21T12:14:29.964Z,205
2018-09-21T12:15:39.772Z,205
2018-09-21T12:16:49.612Z,205
2018-09-21T12:17:59.702Z,200
2018-09-21T12:19:09.532Z,200
2018-09-21T12:20:19.617Z,200
2018-09-21T12:21:29.708Z,200
2018-09-21T12:22:39.678Z,200
2018-09-21T12:23:49.488Z,200
2018-09-21T12:24:59.594Z,200
2018-09-21T12:26:09.699Z,200
2018-09-21T12:27:19.510Z,200
2018-09-21T12:28:29.131Z,200
2018-09-21T12:29:39.250Z,200
2018-09-21T12:30:49.330Z,200
2018-09-21T12:31:59.416Z,200
2018-09-21T12:33:09.516Z,195
2018-09-21T12:34:19.664Z,195
2018-09-21T12:35:29.767Z,195
2018-09-21T12:36:40.155Z,195
2018-09-21T12:37:50.241Z,195
2018-09-21T12:39:00.082Z,195
2018-09-21T12:40:13.378Z,190
2018-09-21T12:41:23.218Z,190
2018-09-21T12:42:33.585Z,190
2018-09-21T12:43:43.418Z,190
2018-09-21T12:44:53.758Z,185
2018-09-21T12:46:03.605Z,185
2018-09-21T12:47:13.639Z,185
2018-09-21T12:48:23.680Z,185
2018-09-21T12:49:33.708Z,185
2018-09-21T12:50:44.081Z,185
2018-09-21T12:51:53.987Z,185
2018-09-21T12:53:04.031Z,185
2018-09-21T12:54:14.062Z,185
2018-09-21T12:55:24.092Z,185
2018-09-21T12:56:33.761Z,185
2018-09-21T12:57:44.147Z,185
2018-09-21T12:58:55.008Z,185
2018-09-21T13:00:05.131Z,185
2018-09-21T13:01:15.176Z,180
2018-09-21T13:02:25.213Z,180
2018-09-21T13:03:35.303Z,180
2018-09-21T13:04:45.075Z,180
2018-09-21T13:05:55.108Z,180
2018-09-21T13:07:05.190Z,180
2018-09-21T13:08:15.276Z,175
2018-09-21T13:09:25.367Z,175
2018-09-21T13:10:35.222Z,175
2018-09-21T13:11:45.331Z,175
2018-09-21T13:12:55.419Z,175
2018-09-21T13:14:05.513Z,175
2018-09-21T13:15:15.660Z,175
2018-09-21T13:16:25.782Z,175
2018-09-21T13:17:35.885Z,175
2018-09-21T13:18:46.002Z,170
2018-09-21T13:19:55.832Z,170
2018-09-21T13:21:05.989Z,170
2018-09-21T13:22:15.835Z,170
2018-09-21T13:23:25.664Z,170
2018-09-21T13:24:35.752Z,170
2018-09-21T13:25:45.606Z,170
2018-09-21T13:26:55.877Z,170
2018-09-21T13:28:06.053Z,170
2018-09-21T13:29:15.889Z,165
2018-09-21T13:30:25.714Z,165
2018-09-21T13:31:35.819Z,165
2018-09-21T13:32:45.977Z,165
2018-09-21T13:33:56.064Z,165
2018-09-21T13:35:07.201Z,165
2018-09-21T13:36:17.291Z,165
2018-09-21T13:37:27.384Z,165
2018-09-21T13:38:37.212Z,160
2018-09-21T13:39:47.321Z,160
2018-09-21T13:40:57.428Z,160
2018-09-21T13:42:08.623Z,160
2018-09-21T13:43:18.441Z,160
2018-09-21T13:44:28.528Z,160
2018-09-21T13:45:38.637Z,155
2018-09-21T13:46:48.458Z,155
2018-09-21T13:47:58.300Z,155
2018-09-21T13:49:10.486Z,155
2018-09-21T13:50:20.319Z,155
2018-09-21T13:51:30.434Z,155
2018-09-21T13:52:40.522Z,155
2018-09-21T13:53:50.619Z,155
2018-09-21T13:55:00.445Z,155
2018-09-21T13:56:10.546Z,155
2018-09-21T13:57:20.364Z,155
2018-09-21T13:58:30.475Z,150
2018-09-21T13:59:40.583Z,150
2018-09-21T14:00:49.868Z,150
2018-09-21T14:02:00.023Z,150
2018-09-21T14:03:10.121Z,150
2018-09-21T14:04:19.963Z,150
2018-09-21T14:05:29.887Z,150
2018-09-21T14:06:39.832Z,150
2018-09-21T14:07:49.962Z,150
2018-09-21T14:09:00.046Z,150
2018-09-21T14:10:10.159Z,150
2018-09-21T14:11:20.256Z,150
2018-09-21T14:12:30.360Z,150
2018-09-21T14:13:40.462Z,145
2018-09-21T14:14:50.581Z,145
2018-09-21T14:16:01.947Z,145
2018-09-21T14:17:12.047Z,145
2018-09-21T14:18:22.154Z,145
2018-09-21T14:19:32.260Z,145
2018-09-21T14:20:42.373Z,145
2018-09-21T14:21:52.539Z,145
2018-09-21T14:23:02.676Z,145
2018-09-21T14:24:12.525Z,140
2018-09-21T14:25:22.630Z,140
2018-09-21T14:26:32.734Z,140
2018-09-21T14:27:42.814Z,140
2018-09-21T14:28:52.721Z,140
2018-09-21T14:30:05.022Z,140
2018-09-21T14:31:15.131Z,135
2018-09-21T14:32:25.210Z,135
2018-09-21T14:33:35.324Z,135
2018-09-21T14:34:45.411Z,135
2018-09-21T14:35:55.772Z,135
2018-09-21T14:37:05.918Z,135
2018-09-21T14:38:16.034Z,135
2018-09-21T14:39:26.152Z,135
2018-09-21T14:40:36.008Z,130
2018-09-21T14:41:46.133Z,130
2018-09-21T14:42:56.243Z,130
2018-09-21T14:44:06.083Z,130
2018-09-21T14:45:16.160Z,130
2018-09-21T14:46:26.260Z,125
2018-09-21T14:47:36.351Z,125
2018-09-21T14:48:46.512Z,120
2018-09-21T14:49:56.636Z,110
2018-09-21T14:51:06.225Z,105
2018-09-21T14:52:16.065Z,110
2018-09-21T14:53:26.438Z,105
2018-09-21T14:54:36.318Z,105
2018-09-21T14:55:46.409Z,100
2018-09-21T14:56:55.985Z,100
2018-09-21T14:58:06.074Z,100
2018-09-21T14:59:16.431Z,95
2018-09-21T15:00:26.537Z,100
2018-09-21T15:01:36.630Z,95
2018-09-21T15:02:46.451Z,100
2018-09-21T15:03:56.549Z,100
2018-09-21T15:05:07.710Z,105
2018-09-21T15:06:17.801Z,105
2018-09-21T15:07:27.925Z,105
2018-09-21T15:08:38.104Z,110
2018-09-21T15:09:48.203Z,105
2018-09-21T15:10:58.282Z,100
2018-09-21T15:12:10.435Z,100
2018-09-21T15:13:20.513Z,95
2018-09-21T15:14:30.633Z,90
2018-09-21T15:15:40.726Z,85
2018-09-21T15:16:50.846Z,80
2018-09-21T15:18:00.973Z,90
2018-09-21T15:19:11.087Z,90
2018-09-21T15:20:21.185Z,80
2018-09-21T15:21:31.283Z,85
2018-09-21T15:22:41.387Z,95
2018-09-21T15:23:51.553Z,90
2018-09-21T15:25:01.671Z,90
2018-09-21T15:26:11.783Z,90
2018-09-21T15:27:21.911Z,90
2018-09-21T15:28:32.038Z,90
2018-09-21T15:29:42.427Z,90
2018-09-21T15:30:52.510Z,90
2018-09-21T15:32:03.770Z,90
2018-09-21T15:33:13.869Z,90
2018-09-21T15:34:23.706Z,85
2018-09-21T15:35:33.822Z,90
2018-09-21T15:36:43.387Z,90
2018-09-21T15:37:53.482Z,90
2018-09-21T15:39:03.297Z,90
2018-09-21T15:40:13.370Z,85
2018-09-21T15:41:23.262Z,85
2018-09-21T15:42:33.356Z,80
2018-09-21T15:43:44.058Z,80
2018-09-21T15:44:54.147Z,75
2018-09-21T15:46:04.244Z,70
2018-09-21T15:47:14.351Z,70
2018-09-21T15:48:24.483Z,65
2018-09-21T15:49:34.569Z,65
2018-09-21T15:50:44.652Z,65
2018-09-21T15:51:54.735Z,60
2018-09-21T15:53:04.892Z,55
2018-09-21T15:54:14.980Z,55
2018-09-21T15:55:24.814Z,50
2018-09-21T15:56:34.940Z,50
2018-09-21T15:57:45.049Z,50
2018-09-21T15:58:55.556Z,50
2018-09-21T16:00:06.153Z,50
2018-09-21T16:01:16.239Z,50
2018-09-21T16:02:26.352Z,50
2018-09-21T16:03:36.489Z,50
2018-09-21T16:04:46.582Z,50
2018-09-21T16:05:56.984Z,50
2018-09-21T16:07:07.581Z,50
2018-09-21T16:08:17.503Z,50
2018-09-21T16:09:27.391Z,45
2018-09-21T16:10:37.549Z,45
2018-09-21T16:11:47.660Z,45
2018-09-21T16:12:57.494Z,45
2018-09-21T16:14:07.317Z,40
2018-09-21T16:15:17.408Z,40
2018-09-21T16:16:27.522Z,40
2018-09-21T16:17:37.630Z,35
2018-09-21T16:18:47.745Z,35
2018-09-21T16:19:57.831Z,35
2018-09-21T16:21:08.518Z,30
2018-09-21T16:22:18.609Z,30
2018-09-21T16:23:28.436Z,30
2018-09-21T16:24:38.538Z,30
2018-09-21T16:25:48.679Z,30
2018-09-21T16:26:58.820Z,25
2018-09-21T16:28:08.933Z,25
2018-09-21T16:29:19.058Z,25
2018-09-21T16:30:28.885Z,25
2018-09-21T16:31:39.005Z,20
2018-09-21T16:32:49.243Z,20
2018-09-21T16:33:59.349Z,20
2018-09-21T16:35:09.432Z,20
2018-09-21T16:36:19.821Z,20
2018-09-21T16:37:29.744Z,15
2018-09-21T16:38:39.871Z,15
2018-09-21T16:39:49.988Z,15
2018-09-21T16:41:00.084Z,10
2018-09-21T16:42:10.204Z,10
2018-09-21T16:43:20.328Z,10
2018-09-21T16:44:30.495Z,5
2018-09-21T16:45:40.610Z,5
2018-09-21T16:46:50.444Z,5
2018-09-21T16:48:00.013Z,5
2018-09-21T16:49:13.008Z,5
2018-09-21T16:50:23.228Z,5
2018-09-21T16:51:33.181Z,5
2018-09-21T16:52:43.643Z,5
2018-09-21T16:53:53.501Z,0
2018-09-21T16:55:03.607Z,0
2018-09-21T16:56:13.728Z,0
2018-09-21T16:57:23.705Z,0
2018-09-21T16:58:33.303Z,0
2018-09-21T16:59:43.411Z,0
2018-09-21T17:00:52.982Z,0
2018-09-21T17:02:03.160Z,0